Time;durP1;ratioP1;P1;durP2;ratioP2;P2;SDS_P1;SDS_P2;PMS_P1;PMS_P2;Temp;Humidity;BMP_temperature;BMP_pressure;BME280_temperature;BME280_humidity;BME280_pressure;Samples;Min_cycle;Max_cycle;Signal;HPM_P1;HPM_P2
2021/12/14 00:01:10;;;;;;;13.20;9.90;;;;;;;6.27;100.00;99194.03;5076313;28;20211;-73
2021/12/14 00:03:40;;;;;;;12.77;10.67;;;;;;;6.36;100.00;99188.59;5076282;28;20238;-73
2021/12/14 00:06:08;;;;;;;12.53;9.10;;;;;;;6.38;100.00;99185.78;5076224;28;20588;-73
2021/12/14 00:08:47;;;;;;;12.73;9.70;;;;;;;6.29;100.00;99187.59;5076482;28;20189;-73
2021/12/14 00:11:30;;;;;;;13.00;10.50;;;;;;;6.26;100.00;99187.09;5076361;28;20215;-74
2021/12/14 00:14:12;;;;;;;14.97;11.30;;;;;;;6.19;100.00;99192.19;5076323;28;20224;-74
2021/12/14 00:16:39;;;;;;;15.47;10.70;;;;;;;6.20;100.00;99193.03;5076407;28;20195;-73
2021/12/14 00:19:06;;;;;;;12.83;10.60;;;;;;;6.23;100.00;99188.25;5076445;28;20195;-73
2021/12/14 00:21:35;;;;;;;13.93;11.57;;;;;;;6.30;100.00;99188.41;5076341;28;20208;-73
2021/12/14 00:24:11;;;;;;;15.40;11.57;;;;;;;6.33;100.00;99177.53;5076287;28;20225;-73
2021/12/14 00:26:48;;;;;;;15.57;11.03;;;;;;;6.24;100.00;99181.16;5076531;28;20199;-73
2021/12/14 00:29:23;;;;;;;14.33;11.03;;;;;;;6.23;100.00;99187.41;5076228;28;20199;-74
2021/12/14 00:31:51;;;;;;;16.13;10.87;;;;;;;6.14;100.00;99183.94;5076849;28;20216;-73
2021/12/14 00:34:23;;;;;;;14.40;11.83;;;;;;;6.22;100.00;99186.59;5075793;28;20224;-72
2021/12/14 00:36:51;;;;;;;15.50;11.57;;;;;;;6.18;100.00;99184.44;5076437;28;20235;-73
2021/12/14 00:39:18;;;;;;;14.90;11.20;;;;;;;6.26;100.00;99192.38;5076143;28;20204;-73
2021/12/14 00:41:45;;;;;;;15.23;11.67;;;;;;;6.25;100.00;99188.09;5076141;28;20189;-73
2021/12/14 00:44:12;;;;;;;15.40;11.90;;;;;;;6.15;100.00;99182.97;5076296;28;20219;-73
2021/12/14 00:46:38;;;;;;;18.63;11.73;;;;;;;6.12;100.00;99185.94;5076151;28;20196;-73
2021/12/14 00:49:10;;;;;;;18.40;12.13;;;;;;;6.15;100.00;99193.53;5076070;28;20488;-73
2021/12/14 00:51:36;;;;;;;18.30;12.17;;;;;;;6.18;100.00;99192.38;5075805;28;20599;-73
2021/12/14 00:54:06;;;;;;;16.93;11.97;;;;;;;6.17;100.00;99193.34;5075918;28;20232;-73
2021/12/14 00:56:34;;;;;;;17.77;11.40;;;;;;;6.15;100.00;99187.44;5076875;28;20199;-73
2021/12/14 00:59:09;;;;;;;17.07;12.13;;;;;;;6.12;100.00;99195.66;5076049;28;20235;-73
2021/12/14 01:01:46;;;;;;;15.93;10.97;;;;;;;6.13;100.00;99187.59;5076947;28;20192;-73
2021/12/14 01:04:21;;;;;;;14.57;10.43;;;;;;;6.15;100.00;99201.44;5079777;28;20315;-73
2021/12/14 01:06:48;;;;;;;13.47;10.37;;;;;;;6.13;100.00;99203.44;5079823;28;20211;-73
2021/12/14 01:09:22;;;;;;;15.03;10.73;;;;;;;6.16;100.00;99197.81;5079404;28;20614;-73
2021/12/14 01:11:50;;;;;;;16.40;11.13;;;;;;;6.12;100.00;99206.22;5079433;28;20218;-73
2021/12/14 01:14:28;;;;;;;15.97;11.17;;;;;;;6.09;100.00;99211.81;5079644;28;20319;-73
2021/12/14 01:17:10;;;;;;;14.93;10.53;;;;;;;6.16;100.00;99215.47;5079878;28;20204;-73
2021/12/14 01:19:41;;;;;;;13.80;10.30;;;;;;;6.23;100.00;99227.03;5079508;28;20494;-73
2021/12/14 01:22:39;;;;;;;12.43;9.60;;;;;;;6.17;100.00;99227.69;5079535;28;20196;-73
2021/12/14 01:25:27;;;;;;;14.70;10.23;;;;;;;6.11;100.00;99215.16;5079653;28;20212;-73
2021/12/14 01:27:56;;;;;;;15.83;10.00;;;;;;;6.10;100.00;99218.78;5079452;28;20196;-73
2021/12/14 01:30:55;;;;;;;15.20;10.47;;;;;;;6.12;100.00;99222.91;5079045;28;20200;-73
2021/12/14 01:33:24;;;;;;;14.33;9.97;;;;;;;6.12;100.00;99222.06;5079074;28;20220;-73
2021/12/14 01:35:53;;;;;;;16.17;10.47;;;;;;;6.04;100.00;99224.69;5079239;28;20235;-69
2021/12/14 01:38:33;;;;;;;15.63;10.60;;;;;;;5.95;100.00;99223.84;5079273;28;20224;-69
2021/12/14 01:41:09;;;;;;;15.03;11.00;;;;;;;5.97;100.00;99226.34;5079214;28;20494;-69
2021/12/14 01:43:39;;;;;;;14.13;10.80;;;;;;;5.92;100.00;99229.44;5079255;28;20185;-69
2021/12/14 01:46:24;;;;;;;13.77;10.77;;;;;;;5.94;100.00;99226.66;5079111;28;20185;-69
2021/12/14 01:48:51;;;;;;;15.13;10.97;;;;;;;5.94;100.00;99234.56;5079020;28;20199;-69
2021/12/14 01:51:19;;;;;;;18.30;12.13;;;;;;;5.98;100.00;99220.88;5079046;28;20189;-69
2021/12/14 01:53:50;;;;;;;14.80;10.67;;;;;;;5.98;100.00;99227.97;5079067;28;20229;-70
2021/12/14 01:56:21;;;;;;;15.73;10.90;;;;;;;5.97;100.00;99223.69;5078873;28;20618;-70
2021/12/14 01:58:53;;;;;;;17.80;10.90;;;;;;;5.81;100.00;99229.75;5078511;28;20211;-69
2021/12/14 02:01:24;;;;;;;12.83;10.47;;;;;;;5.84;100.00;99229.41;5078821;28;20189;-70
2021/12/14 02:04:01;;;;;;;14.27;10.97;;;;;;;5.82;100.00;99230.56;5078720;28;20204;-69
2021/12/14 02:06:32;;;;;;;15.23;11.00;;;;;;;5.80;100.00;99225.47;5078715;28;20275;-69
2021/12/14 02:09:06;;;;;;;13.10;10.17;;;;;;;5.73;100.00;99223.56;5078671;28;20190;-69
2021/12/14 02:11:36;;;;;;;14.40;10.70;;;;;;;5.67;100.00;99217.16;5078235;28;20522;-69
2021/12/14 02:14:04;;;;;;;14.43;10.77;;;;;;;5.73;100.00;99226.22;5077602;28;20220;-69
2021/12/14 02:16:31;;;;;;;14.30;11.00;;;;;;;5.75;100.00;99218.97;5078606;28;20263;-69
2021/12/14 02:19:02;;;;;;;15.60;11.10;;;;;;;5.70;100.00;99229.19;5078484;28;20192;-69
2021/12/14 02:21:29;;;;;;;15.97;11.17;;;;;;;5.71;100.00;99233.47;5078483;28;20200;-69
2021/12/14 02:23:59;;;;;;;15.23;10.77;;;;;;;5.71;100.00;99225.56;5078307;28;20224;-69
2021/12/14 02:26:31;;;;;;;15.33;10.57;;;;;;;5.69;100.00;99222.25;5078347;28;20184;-69
2021/12/14 02:29:00;;;;;;;15.63;10.27;;;;;;;5.73;100.00;99216.50;5078319;28;20199;-69
2021/12/14 02:31:29;;;;;;;16.07;10.90;;;;;;;5.73;100.00;99219.13;5077940;28;20192;-69
2021/12/14 02:33:59;;;;;;;16.43;12.10;;;;;;;5.72;100.00;99228.03;5078076;28;20228;-69
2021/12/14 02:36:32;;;;;;;16.17;11.27;;;;;;;5.73;100.00;99218.28;5078089;28;20193;-69
2021/12/14 02:39:07;;;;;;;15.93;11.50;;;;;;;5.70;100.00;99216.00;5078053;28;20200;-69
2021/12/14 02:41:45;;;;;;;16.77;12.10;;;;;;;5.65;100.00;99215.66;5077991;28;20294;-69
2021/12/14 02:44:11;;;;;;;18.63;11.73;;;;;;;5.63;100.00;99207.06;5077894;28;20216;-69
2021/12/14 02:46:43;;;;;;;17.40;12.37;;;;;;;5.56;100.00;99212.16;5077657;28;20590;-69
2021/12/14 02:49:13;;;;;;;19.97;13.10;;;;;;;5.63;100.00;99215.81;5078416;28;20196;-69
2021/12/14 02:51:48;;;;;;;18.63;13.07;;;;;;;5.66;100.00;99210.19;5077809;28;20184;-69
2021/12/14 02:54:30;;;;;;;18.97;12.73;;;;;;;5.65;100.00;99207.75;5077330;28;20532;-69
2021/12/14 02:57:00;;;;;;;17.43;11.97;;;;;;;5.67;100.00;99216.31;5077645;28;20205;-69
2021/12/14 02:59:30;;;;;;;18.93;12.37;;;;;;;5.70;100.00;99213.38;5077649;28;20189;-69
2021/12/14 03:02:03;;;;;;;18.30;12.93;;;;;;;5.68;100.00;99213.50;5078176;28;20193;-69
2021/12/14 03:04:30;;;;;;;19.87;12.70;;;;;;;5.70;100.00;99216.00;5077502;28;20220;-69
2021/12/14 03:07:00;;;;;;;20.67;12.70;;;;;;;5.68;100.00;99205.59;5077210;28;20576;-69
2021/12/14 03:09:39;;;;;;;18.90;12.63;;;;;;;5.72;100.00;99211.38;5077446;28;20209;-69
2021/12/14 03:12:24;;;;;;;18.17;12.00;;;;;;;5.71;100.00;99217.66;5077162;28;20530;-69
2021/12/14 03:14:55;;;;;;;19.60;12.40;;;;;;;5.64;100.00;99206.91;5077209;28;20541;-69
2021/12/14 03:17:22;;;;;;;21.17;11.93;;;;;;;5.64;100.00;99200.78;5077292;28;20199;-70
2021/12/14 03:20:02;;;;;;;17.33;12.00;;;;;;;5.59;100.00;99197.81;5077818;28;20190;-69
2021/12/14 03:22:40;;;;;;;18.50;13.30;;;;;;;5.68;100.00;99202.97;5076946;28;20580;-69
2021/12/14 03:25:12;;;;;;;18.60;12.57;;;;;;;5.62;100.00;99197.50;5076270;28;20239;-69
2021/12/14 03:27:40;;;;;;;21.73;13.63;;;;;;;5.61;100.00;99198.50;5077129;28;20188;-69
2021/12/14 03:30:18;;;;;;;22.03;13.27;;;;;;;5.63;100.00;99205.25;5077071;28;20269;-69
2021/12/14 03:32:45;;;;;;;19.23;12.03;;;;;;;5.79;100.00;99202.66;5077233;28;20195;-69
2021/12/14 03:35:11;;;;;;;20.97;12.97;;;;;;;5.61;100.00;99209.84;5076829;28;20236;-69
2021/12/14 03:37:39;;;;;;;23.17;12.40;;;;;;;5.61;100.00;99209.84;5076965;28;20196;-69
2021/12/14 03:40:07;;;;;;;21.43;12.63;;;;;;;5.58;100.00;99214.63;5076955;28;20192;-69
2021/12/14 03:42:40;;;;;;;19.70;12.57;;;;;;;5.57;100.00;99208.50;5076833;28;20223;-69
2021/12/14 03:45:12;;;;;;;22.30;12.50;;;;;;;5.51;100.00;99210.97;5076390;28;20216;-69
2021/12/14 03:47:43;;;;;;;19.20;12.33;;;;;;;5.68;100.00;99218.78;5076791;28;20195;-69
2021/12/14 03:50:27;;;;;;;21.50;12.03;;;;;;;5.72;100.00;99220.13;5076789;28;20193;-69
2021/12/14 03:52:54;;;;;;;20.53;12.30;;;;;;;5.62;100.00;99210.69;5076752;28;20204;-68
2021/12/14 03:55:36;;;;;;;19.53;12.30;;;;;;;5.61;100.00;99216.97;5076230;28;20632;-69
2021/12/14 03:58:08;;;;;;;22.23;12.60;;;;;;;5.61;100.00;99228.31;5076343;28;20196;-69
2021/12/14 04:00:40;;;;;;;21.40;12.20;;;;;;;5.68;100.00;99225.88;5076236;28;20193;-69
2021/12/14 04:03:10;;;;;;;18.13;11.60;;;;;;;5.63;100.00;99233.44;5076503;28;20197;-69
2021/12/14 04:05:40;;;;;;;19.43;12.03;;;;;;;5.61;100.00;99232.78;5076099;28;20701;-69
2021/12/14 04:08:07;;;;;;;19.70;12.80;;;;;;;5.63;100.00;99231.63;5076416;28;20288;-69
2021/12/14 04:10:36;;;;;;;18.00;11.70;;;;;;;5.67;100.00;99232.13;5076238;28;20540;-69
2021/12/14 04:13:03;;;;;;;19.70;11.53;;;;;;;5.66;100.00;99235.78;5076473;28;20189;-69
2021/12/14 04:15:30;;;;;;;18.33;11.60;;;;;;;5.63;100.00;99228.16;5076163;28;20221;-69
2021/12/14 04:17:57;;;;;;;20.03;11.73;;;;;;;5.65;100.00;99228.84;5075988;28;20204;-69
2021/12/14 04:20:28;;;;;;;18.27;12.07;;;;;;;5.60;100.00;99215.28;5076557;28;20205;-69
2021/12/14 04:22:55;;;;;;;16.07;10.27;;;;;;;5.66;100.00;99209.38;5076263;28;20201;-69
2021/12/14 04:25:27;;;;;;;11.83;8.13;;;;;;;5.66;100.00;99191.72;5075824;28;20219;-69
2021/12/14 04:27:54;;;;;;;12.83;8.30;;;;;;;5.66;100.00;99186.44;5075930;28;20199;-69
2021/12/14 04:30:23;;;;;;;14.87;9.23;;;;;;;5.62;100.00;99200.97;5076183;28;20192;-69
2021/12/14 04:32:55;;;;;;;13.60;8.23;;;;;;;5.60;100.00;99213.47;5076074;28;20200;-69
2021/12/14 04:35:22;;;;;;;13.27;8.03;;;;;;;5.59;100.00;99190.72;5076612;28;20221;-69
2021/12/14 04:37:51;;;;;;;12.80;7.57;;;;;;;5.62;100.00;99190.41;5079922;28;20199;-69
2021/12/14 04:40:36;;;;;;;14.30;8.57;;;;;;;5.63;100.00;99199.16;5080069;28;20221;-69
2021/12/14 04:51:58;;;;;;;19.07;11.47;;;;;;;5.35;100.00;99180.09;5080008;28;20595;-69
2021/12/14 04:54:27;;;;;;;22.37;11.80;;;;;;;5.32;100.00;99174.31;5079648;28;20235;-69
2021/12/14 04:56:54;;;;;;;21.67;12.43;;;;;;;5.34;100.00;99175.78;5079900;28;20196;-69
2021/12/14 04:59:31;;;;;;;19.53;10.73;;;;;;;5.39;100.00;99170.06;5079694;28;20189;-69
2021/12/14 05:02:03;;;;;;;17.80;10.57;;;;;;;5.41;100.00;99160.16;5079307;28;20469;-69
2021/12/14 05:04:32;;;;;;;15.37;9.53;;;;;;;5.43;100.00;99151.09;5079242;28;20227;-69
2021/12/14 05:07:14;;;;;;;13.37;8.80;;;;;;;5.50;100.00;99138.94;5079499;28;20197;-69
2021/12/14 05:09:41;;;;;;;14.07;9.47;;;;;;;5.35;100.00;99158.16;5079452;28;20192;-69
2021/12/14 05:12:14;;;;;;;9.70;7.50;;;;;;;5.38;100.00;99158.66;5079310;28;20211;-69
2021/12/14 05:14:44;;;;;;;9.10;6.60;;;;;;;5.40;100.00;99164.63;5079032;28;20231;-69
2021/12/14 05:17:16;;;;;;;8.40;6.07;;;;;;;5.45;100.00;99159.69;5079422;28;20196;-69
2021/12/14 05:19:44;;;;;;;9.00;6.40;;;;;;;5.44;100.00;99167.75;5079360;28;20185;-69
2021/12/14 05:22:17;;;;;;;8.03;5.97;;;;;;;5.30;100.00;99181.56;5079131;28;20216;-69
2021/12/14 05:24:48;;;;;;;11.57;6.60;;;;;;;5.39;100.00;99172.69;5079072;28;20527;-69
2021/12/14 05:27:19;;;;;;;10.37;6.77;;;;;;;5.40;100.00;99193.63;5078836;28;20185;-69
2021/12/14 05:29:45;;;;;;;17.23;8.67;;;;;;;5.37;100.00;99201.00;5079162;28;20199;-69
2021/12/14 05:32:15;;;;;;;9.50;6.30;;;;;;;5.35;100.00;99190.66;5079066;28;20196;-69
2021/12/14 05:34:42;;;;;;;6.23;5.33;;;;;;;5.34;100.00;99188.16;5078915;28;20220;-69
2021/12/14 05:37:11;;;;;;;7.97;5.50;;;;;;;5.31;100.00;99177.94;5078531;28;20557;-70
2021/12/14 05:39:49;;;;;;;7.23;4.87;;;;;;;5.28;100.00;99189.63;5078832;28;20247;-69
2021/12/14 05:45:12;;;;;;;7.40;5.60;;;;;;;5.30;100.00;99153.34;5078277;28;20284;-69
2021/12/14 05:47:52;;;;;;;11.30;8.17;;;;;;;5.23;100.00;99143.63;5078349;28;20442;-69
2021/12/14 05:50:24;;;;;;;17.90;9.53;;;;;;;5.15;100.00;99160.22;5078462;28;20193;-69
2021/12/14 05:52:51;;;;;;;14.63;9.00;;;;;;;5.17;100.00;99162.72;5078369;28;20196;-69
2021/12/14 05:55:24;;;;;;;11.47;7.80;;;;;;;5.24;100.00;99176.94;5078392;28;20469;-70
2021/12/14 05:57:51;;;;;;;7.87;5.43;;;;;;;5.13;100.00;99169.28;5078192;28;20195;-69
2021/12/14 06:00:19;;;;;;;6.63;5.03;;;;;;;5.16;100.00;99175.06;5078734;28;20193;-69
2021/12/14 06:02:47;;;;;;;6.93;5.17;;;;;;;5.04;100.00;99191.31;5077754;28;20196;-69
2021/12/14 06:05:17;;;;;;;7.10;5.37;;;;;;;5.12;100.00;99172.91;5077987;28;20251;-69
2021/12/14 06:07:44;;;;;;;6.17;5.00;;;;;;;5.14;100.00;99166.50;5077985;28;20255;-68
2021/12/14 06:10:13;;;;;;;5.90;5.23;;;;;;;5.06;100.00;99160.38;5077844;28;20207;-69
2021/12/14 06:12:40;;;;;;;4.93;4.40;;;;;;;5.03;100.00;99158.03;5077593;28;20275;-69
2021/12/14 06:15:14;;;;;;;7.67;5.30;;;;;;;4.99;100.00;99154.06;5076922;28;20254;-69
2021/12/14 06:17:42;;;;;;;5.73;4.50;;;;;;;4.98;100.00;99155.03;5077694;28;20192;-69
2021/12/14 06:20:21;;;;;;;5.83;5.23;;;;;;;4.91;100.00;99162.75;5077756;28;20197;-69
2021/12/14 06:22:49;;;;;;;5.53;4.90;;;;;;;4.99;100.00;99172.50;5077409;28;20487;-69
2021/12/14 06:25:24;;;;;;;5.20;4.67;;;;;;;5.01;100.00;99166.09;5077273;28;20220;-70
2021/12/14 06:27:53;;;;;;;5.63;4.63;;;;;;;5.02;100.00;99172.19;5077264;28;20200;-69
2021/12/14 06:30:26;;;;;;;5.53;4.80;;;;;;;4.98;100.00;99171.66;5077964;28;20534;-69
2021/12/14 06:33:02;;;;;;;5.50;4.90;;;;;;;4.98;100.00;99165.59;5077639;28;20196;-69
2021/12/14 06:35:36;;;;;;;5.67;5.00;;;;;;;4.99;100.00;99162.81;5077361;28;20495;-70
2021/12/14 06:38:29;;;;;;;5.90;5.17;;;;;;;4.94;100.00;99153.69;5077323;28;20603;-69
2021/12/14 06:41:14;;;;;;;7.23;5.03;;;;;;;4.92;100.00;99156.50;5077941;28;20188;-69
2021/12/14 06:43:40;;;;;;;5.43;4.93;;;;;;;4.85;99.97;99155.47;5077476;28;20185;-69
2021/12/14 06:46:11;;;;;;;5.40;4.80;;;;;;;4.77;100.00;99149.31;5077085;28;20207;-69
2021/12/14 06:48:42;;;;;;;5.87;4.50;;;;;;;4.83;100.00;99157.44;5077852;28;20192;-69
2021/12/14 06:51:37;;;;;;;11.73;6.93;;;;;;;4.81;100.00;99166.47;5077319;28;20583;-69
2021/12/14 06:54:17;;;;;;;15.40;8.83;;;;;;;4.83;100.00;99151.31;5074157;28;20524;-69
2021/12/14 06:56:49;;;;;;;12.90;7.70;;;;;;;4.73;100.00;99135.66;5076935;28;20272;-69
2021/12/14 06:59:20;;;;;;;15.43;8.67;;;;;;;4.68;100.00;99135.28;5076862;28;20188;-69
2021/12/14 07:01:54;;;;;;;12.03;8.20;;;;;;;4.71;100.00;99127.06;5077271;28;20192;-69
2021/12/14 07:04:48;;;;;;;12.40;8.57;;;;;;;4.73;100.00;99119.00;5077142;28;20216;-69
2021/12/14 07:07:18;;;;;;;12.87;8.90;;;;;;;4.68;100.00;99127.38;5077023;28;20211;-68
2021/12/14 07:09:48;;;;;;;12.20;8.60;;;;;;;4.58;100.00;99112.66;5077314;28;20215;-68
2021/12/14 07:12:21;;;;;;;15.93;9.80;;;;;;;4.57;100.00;99111.81;5077301;28;20651;-68
2021/12/14 07:14:51;;;;;;;15.27;8.83;;;;;;;4.45;100.00;99101.72;5076914;28;20221;-68
2021/12/14 07:17:19;;;;;;;14.20;9.40;;;;;;;4.46;100.00;99111.25;5076808;28;20189;-67
2021/12/14 07:19:56;;;;;;;16.83;9.30;;;;;;;4.45;100.00;99099.94;5076680;28;20250;-68
2021/12/14 07:22:26;;;;;;;17.03;8.90;;;;;;;4.50;100.00;99100.28;5076428;28;20202;-69
2021/12/14 07:25:04;;;;;;;14.90;9.00;;;;;;;4.48;100.00;99104.06;5076641;28;20220;-69
2021/12/14 07:27:33;;;;;;;15.03;8.70;;;;;;;4.47;100.00;99102.41;5076560;28;20501;-68
2021/12/14 07:30:15;;;;;;;12.13;8.77;;;;;;;4.46;100.00;99111.25;5074471;28;20192;-68
2021/12/14 07:32:44;;;;;;;13.73;9.03;;;;;;;4.42;100.00;99116.03;5074594;28;20220;-68
2021/12/14 07:35:24;;;;;;;10.47;8.00;;;;;;;4.45;100.00;99122.78;5074139;28;20251;-68
2021/12/14 07:37:52;;;;;;;12.53;8.37;;;;;;;4.46;100.00;99140.22;5074369;28;20195;-68
2021/12/14 07:40:19;;;;;;;12.63;9.10;;;;;;;4.49;100.00;99145.19;5074076;28;20224;-68
2021/12/14 07:42:45;;;;;;;14.87;8.90;;;;;;;4.49;100.00;99153.09;5074608;28;20566;-69
2021/12/14 07:45:23;;;;;;;12.17;8.43;;;;;;;4.48;100.00;99140.91;5075861;28;20217;-68
2021/12/14 07:47:52;;;;;;;11.53;8.37;;;;;;;4.49;100.00;99132.88;5076227;28;20200;-68
2021/12/14 07:50:19;;;;;;;12.70;8.03;;;;;;;4.43;100.00;99149.25;5073885;28;20196;-69
2021/12/14 07:52:46;;;;;;;14.43;7.97;;;;;;;4.52;100.00;99142.25;5054925;28;20201;-68
2021/12/14 07:55:19;;;;;;;12.53;8.40;;;;;;;4.53;100.00;99133.38;5055141;28;20233;-69
2021/12/14 07:57:48;;;;;;;11.97;8.60;;;;;;;4.69;100.00;99136.09;5055410;28;20457;-68
2021/12/14 08:00:24;;;;;;;9.70;7.73;;;;;;;4.95;100.00;99144.81;5055352;28;20200;-68
2021/12/14 08:02:56;;;;;;;11.90;7.67;;;;;;;4.69;100.00;99149.25;5055364;28;20634;-68
2021/12/14 08:05:33;;;;;;;10.07;7.93;;;;;;;4.68;100.00;99158.16;5055618;28;20573;-68
2021/12/14 08:08:09;;;;;;;8.67;6.73;;;;;;;4.71;100.00;99152.59;5055677;28;20190;-69
2021/12/14 08:10:40;;;;;;;8.90;6.90;;;;;;;4.56;100.00;99162.03;5055222;28;20212;-68
2021/12/14 08:13:09;;;;;;;8.37;6.97;;;;;;;4.54;100.00;99164.00;5055674;28;20205;-67
2021/12/14 08:15:55;;;;;;;9.33;6.97;;;;;;;4.49;100.00;99164.47;5056069;28;20217;-68
2021/12/14 08:18:30;;;;;;;9.80;6.77;;;;;;;4.52;100.00;99169.41;5055986;28;20193;-68
2021/12/14 08:21:01;;;;;;;12.77;7.27;;;;;;;4.45;100.00;99181.56;5056117;28;20192;-68
2021/12/14 08:23:27;;;;;;;12.73;7.60;;;;;;;4.52;100.00;99174.66;5056110;28;20200;-68
2021/12/14 08:25:57;;;;;;;9.30;7.20;;;;;;;4.53;100.00;99205.28;5055762;28;20690;-68
2021/12/14 08:28:24;;;;;;;12.57;7.90;;;;;;;4.56;100.00;99204.19;5056106;28;20197;-68
2021/12/14 08:31:01;;;;;;;10.17;7.87;;;;;;;4.56;100.00;99204.19;5055962;28;20201;-68
2021/12/14 08:33:29;;;;;;;10.57;7.47;;;;;;;4.60;100.00;99195.81;5056133;28;20208;-67
2021/12/14 08:35:58;;;;;;;11.30;7.30;;;;;;;4.79;100.00;99208.78;5055840;28;20229;-68
2021/12/14 08:38:26;;;;;;;9.60;7.40;;;;;;;4.91;99.90;99204.91;5056065;28;20204;-68
2021/12/14 08:40:59;;;;;;;9.90;7.10;;;;;;;4.85;99.17;99213.44;5055740;28;20616;-67
2021/12/14 08:43:33;;;;;;;8.50;7.17;;;;;;;4.80;99.36;99194.63;5056774;28;20488;-68
2021/12/14 08:46:04;;;;;;;8.50;7.00;;;;;;;4.92;98.71;99190.75;5055666;28;20602;-68
2021/12/14 08:48:36;;;;;;;10.57;7.23;;;;;;;4.89;99.48;99195.50;5056007;28;20189;-68
2021/12/14 08:51:29;;;;;;;8.57;6.97;;;;;;;4.86;98.76;99187.91;5056037;28;20558;-68
2021/12/14 08:54:01;;;;;;;10.23;7.20;;;;;;;5.08;98.09;99182.94;5055621;28;20275;-68
2021/12/14 08:56:31;;;;;;;9.57;7.20;;;;;;;5.01;97.87;99170.53;5055551;28;20217;-68
2021/12/14 08:58:58;;;;;;;9.10;6.77;;;;;;;4.89;98.81;99175.22;5055750;28;20204;-68
2021/12/14 09:01:28;;;;;;;7.40;5.97;;;;;;;4.99;97.33;99188.31;5055997;28;20189;-68
2021/12/14 09:04:03;;;;;;;8.53;6.50;;;;;;;4.91;98.69;99190.91;5055959;28;20229;-68
2021/12/14 09:06:34;;;;;;;7.77;6.20;;;;;;;4.93;97.78;99202.94;5055800;28;20193;-68
2021/12/14 09:09:04;;;;;;;10.17;6.33;;;;;;;4.96;98.07;99196.53;5055976;28;20193;-68
2021/12/14 09:11:33;;;;;;;8.27;6.27;;;;;;;4.97;97.87;99191.09;5055515;28;20217;-66
2021/12/14 09:14:00;;;;;;;8.10;6.20;;;;;;;4.89;97.78;99188.41;5055290;28;20225;-68
2021/12/14 09:16:30;;;;;;;6.83;5.93;;;;;;;5.13;95.84;99207.03;5055349;28;20210;-69
2021/12/14 09:19:15;;;;;;;7.07;6.27;;;;;;;5.43;94.61;99213.59;5055524;28;20474;-68
2021/12/14 09:21:45;;;;;;;8.63;6.60;;;;;;;5.47;94.57;99212.28;5055823;28;20193;-69
2021/12/14 09:24:16;;;;;;;7.40;6.30;;;;;;;5.49;94.00;99212.94;5058698;28;20526;-68
2021/12/14 09:26:46;;;;;;;9.40;7.00;;;;;;;5.60;94.80;99212.66;5058905;28;20588;-68
2021/12/14 09:29:17;;;;;;;7.90;6.10;;;;;;;5.51;93.47;99213.59;5059204;28;20204;-68
2021/12/14 09:31:49;;;;;;;7.23;5.97;;;;;;;5.74;91.95;99198.88;5059286;28;20190;-68
2021/12/14 09:34:18;;;;;;;8.60;6.67;;;;;;;5.67;93.85;99200.47;5059517;28;20225;-69
2021/12/14 09:36:46;;;;;;;7.10;6.40;;;;;;;5.90;91.77;99206.84;5059322;28;20228;-69
2021/12/14 09:39:27;;;;;;;7.00;5.70;;;;;;;6.06;89.83;99194.50;5059151;28;20495;-68
2021/12/14 09:41:54;;;;;;;8.20;6.73;;;;;;;6.27;89.90;99188.75;5058886;28;20597;-68
2021/12/14 09:44:25;;;;;;;9.50;6.63;;;;;;;6.07;90.86;99216.44;5058632;28;20620;-69
2021/12/14 09:46:54;;;;;;;9.77;7.13;;;;;;;6.12;91.34;99200.94;5058584;28;20277;-69
2021/12/14 09:49:21;;;;;;;6.67;6.03;;;;;;;6.34;89.22;99205.59;5058708;28;20199;-68
2021/12/14 09:51:54;;;;;;;6.97;6.27;;;;;;;6.11;88.74;99202.75;5058850;28;20219;-68
2021/12/14 09:54:24;;;;;;;10.27;7.03;;;;;;;5.95;90.77;99200.09;5058625;28;20228;-69
2021/12/14 09:57:13;;;;;;;8.63;6.10;;;;;;;6.06;91.06;99201.59;5058536;28;20232;-70
2021/12/14 09:59:40;;;;;;;9.10;6.77;;;;;;;6.08;88.82;99196.97;5058712;28;20189;-70
2021/12/14 10:02:15;;;;;;;9.50;6.50;;;;;;;6.07;89.54;99184.78;5058685;28;20276;-70
2021/12/14 10:04:47;;;;;;;8.83;6.37;;;;;;;6.17;88.69;99191.56;5058070;28;20220;-69
2021/12/14 10:07:14;;;;;;;12.10;7.33;;;;;;;6.44;89.41;99198.31;5058393;28;20182;-70
2021/12/14 10:09:48;;;;;;;12.03;7.23;;;;;;;6.33;88.81;99196.03;5058155;28;20190;-70
2021/12/14 10:15:24;;;;;;;12.87;6.80;;;;;;;6.15;89.91;99190.06;5058384;28;20204;-70
2021/12/14 10:17:55;;;;;;;11.37;7.07;;;;;;;6.08;90.40;99194.34;5058259;28;20463;-69
2021/12/14 10:20:28;;;;;;;8.17;6.43;;;;;;;6.22;90.76;99196.34;5057338;28;20185;-70
2021/12/14 10:22:55;;;;;;;7.53;6.47;;;;;;;6.40;88.69;99197.84;5058614;28;20196;-67
2021/12/14 10:25:25;;;;;;;9.97;6.67;;;;;;;6.14;88.68;99194.50;5057386;28;20221;-68
2021/12/14 10:27:53;;;;;;;9.20;6.30;;;;;;;6.52;86.78;99178.00;5057906;28;20198;-67
2021/12/14 10:30:34;;;;;;;8.70;6.77;;;;;;;6.56;88.88;99183.81;5057535;28;20435;-68
2021/12/14 10:33:01;;;;;;;11.87;7.40;;;;;;;6.47;88.38;99182.97;5057096;28;20581;-69
2021/12/14 10:35:39;;;;;;;8.07;6.50;;;;;;;6.14;89.31;99188.41;5057752;28;20221;-68
2021/12/14 10:38:19;;;;;;;9.20;6.57;;;;;;;6.24;89.67;99194.38;5057745;28;20580;-68
2021/12/14 10:43:35;;;;;;;9.30;6.70;;;;;;;6.40;88.79;99200.47;5057876;28;20179;-68
2021/12/14 10:46:15;;;;;;;8.00;6.50;;;;;;;6.83;86.30;99183.44;5057689;28;20197;-68
2021/12/14 10:48:46;;;;;;;7.73;6.73;;;;;;;6.65;86.90;99190.72;5057705;28;20196;-68
2021/12/14 10:51:15;;;;;;;8.80;7.37;;;;;;;6.49;88.92;99182.81;5057660;28;20189;-68
2021/12/14 10:53:45;;;;;;;7.33;6.33;;;;;;;6.53;89.91;99189.41;5057777;28;20193;-68
2021/12/14 10:56:20;;;;;;;8.57;6.63;;;;;;;6.86;86.82;99210.34;5057588;28;20271;-67
2021/12/14 10:58:49;;;;;;;8.27;6.40;;;;;;;6.63;87.79;99203.28;5057352;28;20478;-67
2021/12/14 11:01:25;;;;;;;8.20;6.30;;;;;;;6.42;88.55;99195.03;5057497;28;20200;-68
2021/12/14 11:03:56;;;;;;;8.37;6.90;;;;;;;6.44;90.40;99191.25;5057310;28;20192;-68
2021/12/14 11:06:28;;;;;;;11.33;7.20;;;;;;;6.49;89.77;99196.00;5057262;28;20186;-70
2021/12/14 11:09:38;;;;;;;7.63;5.93;;;;;;;6.88;87.25;99199.63;5056833;28;20683;-68
2021/12/14 11:11:55;;;;;;;8.70;6.90;;;;;;;6.77;88.06;99197.31;5056459;28;20209;-67
2021/12/14 11:14:26;;;;;;;7.33;6.53;;;;;;;6.74;88.44;99200.31;5056404;28;20221;-68
2021/12/14 11:19:57;;;;;;;9.60;7.47;;;;;;;6.78;88.37;99198.97;5057178;28;20172;-68
2021/12/14 11:22:43;;;;;;;10.90;7.77;;;;;;;6.58;89.29;99193.22;5057521;28;20196;-69
2021/12/14 11:25:16;;;;;;;11.13;7.73;;;;;;;6.73;88.31;99191.53;5057045;28;20232;-68
2021/12/14 11:27:47;;;;;;;10.00;7.57;;;;;;;6.91;87.88;99189.53;5056832;28;20194;-68
2021/12/14 11:30:18;;;;;;;9.33;7.37;;;;;;;7.05;88.26;99188.00;5056924;28;20193;-68
2021/12/14 11:33:03;;;;;;;11.27;8.23;;;;;;;7.39;87.41;99188.56;5057320;28;20197;-68
2021/12/14 11:35:31;;;;;;;10.10;7.67;;;;;;;7.09;87.30;99197.25;5056948;28;20235;-68
2021/12/14 11:37:59;;;;;;;12.93;8.00;;;;;;;7.31;86.94;99199.16;5056614;28;20577;-68
2021/12/14 11:40:28;;;;;;;10.37;7.93;;;;;;;7.53;86.08;99201.91;5056925;28;20292;-68
2021/12/14 11:43:09;;;;;;;11.33;7.40;;;;;;;7.49;85.09;99205.88;5056756;28;20193;-68
2021/12/14 11:45:37;;;;;;;9.47;7.07;;;;;;;7.53;84.42;99185.19;5055931;28;20221;-67
2021/12/14 11:48:04;;;;;;;9.83;8.07;;;;;;;7.20;87.18;99199.53;5056785;28;20221;-68
2021/12/14 11:50:49;;;;;;;10.70;8.43;;;;;;;7.16;87.09;99191.13;5056833;28;20189;-68
2021/12/14 11:53:18;;;;;;;9.60;8.40;;;;;;;7.41;85.91;99182.09;5056318;28;20189;-67
2021/12/14 11:56:09;;;;;;;11.40;7.93;;;;;;;7.04;87.91;99176.63;5056637;28;20220;-68
2021/12/14 11:58:45;;;;;;;9.63;7.83;;;;;;;6.99;89.92;99162.25;5056157;28;20201;-68
2021/12/14 12:01:28;;;;;;;10.77;8.17;;;;;;;7.26;87.91;99157.38;5056329;28;20477;-68
2021/12/14 12:03:59;;;;;;;9.07;7.87;;;;;;;7.38;86.36;99153.34;5056606;28;20231;-68
2021/12/14 12:09:28;;;;;;;10.37;7.90;;;;;;;7.57;86.99;99154.75;5056363;28;20189;-69
2021/12/14 12:09:56;;;;;;;9.57;7.20;;;;;;;7.68;85.73;99149.06;5055795;28;20282;-69
2021/12/14 12:12:38;;;;;;;8.43;7.33;;;;;;;7.48;85.30;99151.31;5056105;28;20638;-67